• Join FlightAware (Why Join?)
  • Login
  • US Flag 
05:42AM EDT


 

Airport Tracker/Info


-or-


 

Live Flight TrackerFlight Track Log ✈ SWA1821 ✈ 01-Nov-2013 ✈ KLAS - KSAN

Flight Track Log - Related Links

Times and Time Zones

All times are in EDT time to prevent confusion due to time zone crossing. See the SWA1821 flight status page for this flight to view local times or setup timezone preferences in your user account.

Time Position Orientation Groundspeed Altitude Reporting Facility
EDT Latitude Longitude Course Direction KTS MPH feet Rate Location/Type
08:32PM 36.0753 -115.1739 269° West 174 200 3,100  Level Los Angeles Center
08:33PM 36.0750 -115.1925 269° West 176 203 3,800 1,680 Climbing Los Angeles Center
08:33PM 36.0761 -115.1986 283° West 188 216 4,000 1,680 Climbing Los Angeles Center
08:34PM 36.0386 -115.2692 237° Southwest 249 287 6,000 1,620 Climbing Los Angeles Center
08:35PM 35.9811 -115.2978 202° Southwest 285 328 7,000 960 Climbing Los Angeles Center
08:35PM 35.9747 -115.2992 190° South 281 323 7,000 2,340 Level Los Angeles Center
08:36PM 35.8633 -115.3011 181° South 286 329 10,600 2,280 Climbing Los Angeles Center
08:37PM 35.7700 -115.2969 178° South 315 362 12,300 1,980 Climbing Los Angeles Center
08:38PM 35.6653 -115.2931 178° South 363 418 14,700 2,460 Climbing Los Angeles Center
08:39PM 35.5578 -115.2978 182° South 379 436 17,400 2,340 Climbing Los Angeles Center
08:40PM 35.4486 -115.3025 182° South 388 447 19,600 1,740 Climbing Los Angeles Center
08:41PM 35.3383 -115.3075 182° South 395 455 21,000 1,560 Climbing Los Angeles Center
08:43PM 35.2225 -115.3406 193° South 425 489 22,900 1,800 Climbing Los Angeles Center
08:44PM 35.1011 -115.3842 196° South 425 489 24,800 1,680 Climbing Los Angeles Center
08:45PM 34.9858 -115.4261 197° South 429 494 26,400 1,380 Climbing Los Angeles Center
08:46PM 34.8503 -115.4747 196° South 443 510 27,700 720 Climbing Los Angeles Center
08:47PM 34.7300 -115.5175 196° South 449 517 28,000 120 Climbing Los Angeles Center
08:48PM 34.5992 -115.5625 196° South 449 517 28,000  Level Los Angeles Center
08:49PM 34.4833 -115.6050 197° South 447 514 28,000  Level Los Angeles Center
08:50PM 34.3608 -115.6475 196° South 448 516 28,000  Level Los Angeles Center
08:51PM 34.2411 -115.6881 196° South 448 516 28,000  Level Los Angeles Center
08:52PM 34.1183 -115.7300 196° South 456 525 28,000  Level Los Angeles Center
08:53PM 33.9711 -115.7836 197° South 460 529 28,000 -240 Level Los Angeles Center
08:54PM 33.8586 -115.8553 208° Southwest 460 529 27,600 -660 Descending Los Angeles Center
08:55PM 33.7481 -115.9308 210° Southwest 459 528 26,700 -1,020 Descending Los Angeles Center
08:56PM 33.6394 -116.0081 211° Southwest 457 526 25,600 -1,260 Descending Los Angeles Center
08:57PM 33.5308 -116.0833 210° Southwest 452 520 24,200 -2,040 Descending Los Angeles Center
08:58PM 33.4028 -116.1711 210° Southwest 444 511 21,500 -2,940 Descending Los Angeles Center
08:59PM 33.3011 -116.2411 210° Southwest 429 494 18,200 -3,000 Descending Los Angeles Center
09:00PM 33.2008 -116.3103 210° Southwest 422 486 15,400 -2,700 Descending Los Angeles Center
09:01PM 33.1042 -116.3767 210° Southwest 412 474 12,700 -1,680 Descending Los Angeles Center
09:02PM 33.0167 -116.4367 210° Southwest 371 427 12,000 -780 Descending Los Angeles Center
09:03PM 32.9356 -116.4847 206° Southwest 333 383 11,100 -1,020 Descending Los Angeles Center
09:04PM 32.8519 -116.5339 206° Southwest 300 345 10,000 -780 Descending Los Angeles Center
09:05PM 32.8042 -116.6017 230° Southwest 278 320 9,500 -780 Descending Los Angeles Center
09:06PM 32.7561 -116.6622 227° Southwest 259 298 8,500 -1,260 Descending Los Angeles Center
09:07PM 32.7150 -116.7267 233° Southwest 254 292 7,000 -1,260 Descending Los Angeles Center
09:08PM 32.6806 -116.8097 244° Southwest 240 276 5,900 -780 Descending Los Angeles Center
09:09PM 32.6592 -116.8719 248° West 220 253 5,500 -540 Descending Los Angeles Center
09:10PM 32.6667 -116.9167 281° West 210 242 5,100 -960 Descending Southern California TRACON
09:11PM 32.6833 -116.9667 292° West 204 235 4,100 -1,140 Descending Southern California TRACON
09:12PM 32.7000 -117.0333 287° West 181 208 2,900 -1,200 Descending Southern California TRACON
09:13PM 32.7167 -117.0833 292° West 178 205 1,800 -1,020 Descending Southern California TRACON
09:14PM 32.7167 -117.1333 270° West 146 168 900 -960 Descending Southern California TRACON
09:15PM 32.7278 -117.1661 292° West 149 171 300 -960 Descending Los Angeles Center
09:18PM 32.7333 -117.1833 281° West  Level FlightAware Approximate